Time;durP1;ratioP1;P1;durP2;ratioP2;P2;SDS_P1;SDS_P2;PMS_P1;PMS_P2;Temp;Humidity;BMP_temperature;BMP_pressure;BME280_temperature;BME280_humidity;BME280_pressure;Samples;Min_cycle;Max_cycle;Signal;HPM_P1;HPM_P2
2022/09/19 00:01:22;;;;;;;;;3.00;3.00;;;;;15.45;51.50;101302.44;5015807;28;45446;-68
2022/09/19 00:03:57;;;;;;;;;4.00;4.00;;;;;15.46;51.69;101314.75;5017091;28;45450;-69
2022/09/19 00:06:23;;;;;;;;;5.00;5.00;;;;;15.41;51.71;101303.50;5015906;28;45534;-68
2022/09/19 00:08:49;;;;;;;;;4.00;4.00;;;;;15.40;51.47;101307.94;5015883;28;45522;-68
2022/09/19 00:11:17;;;;;;;;;3.33;3.33;;;;;15.45;51.38;101305.09;5003068;28;45440;-68
2022/09/19 00:13:47;;;;;;;;;7.00;5.00;;;;;15.44;50.98;101306.00;4996998;28;45588;-68
2022/09/19 00:16:19;;;;;;;;;4.33;4.33;;;;;15.50;51.18;101319.00;5016130;28;45454;-68
2022/09/19 00:18:46;;;;;;;;;2.00;2.00;;;;;15.50;50.84;101303.09;5016168;28;45558;-68
2022/09/19 00:21:18;;;;;;;;;4.33;4.33;;;;;15.50;51.45;101311.06;5015272;28;45462;-68
2022/09/19 00:26:27;;;;;;;;;4.67;3.00;;;;;15.50;51.29;101310.16;4996180;28;45528;-68
2022/09/19 00:28:53;;;;;;;;;5.00;5.00;;;;;15.41;51.96;101312.28;4996201;28;45479;-67
2022/09/19 00:31:20;;;;;;;;;3.67;3.67;;;;;15.45;51.47;101307.75;4996014;28;45417;-68
2022/09/19 00:33:47;;;;;;;;;6.67;6.00;;;;;15.43;51.53;101321.06;4996311;28;45600;-68
2022/09/19 00:36:13;;;;;;;;;3.00;3.00;;;;;15.43;51.96;101313.09;4998799;28;45515;-68
2022/09/19 00:38:39;;;;;;;;;4.67;4.67;;;;;15.33;51.92;101305.63;5015667;28;45442;-68
2022/09/19 00:41:05;;;;;;;;;3.33;3.33;;;;;15.44;51.65;101327.22;5016950;28;45480;-67
2022/09/19 00:43:44;;;;;;;;;3.67;3.67;;;;;15.44;51.47;101322.75;5016598;28;45360;-68
2022/09/19 00:46:10;;;;;;;;;3.00;3.00;;;;;15.41;52.13;101328.19;5015867;28;45481;-68
2022/09/19 00:48:38;;;;;;;;;2.33;2.33;;;;;15.36;52.75;101330.19;5011552;28;45520;-68
2022/09/19 00:51:04;;;;;;;;;3.67;3.67;;;;;15.31;52.72;101326.88;4999145;28;45535;-68
2022/09/19 00:53:31;;;;;;;;;3.33;3.33;;;;;15.40;51.59;101323.84;5015761;28;45607;-68
2022/09/19 00:55:57;;;;;;;;;4.00;4.00;;;;;15.40;52.63;101326.50;5015417;28;46042;-68
2022/09/19 00:58:29;;;;;;;;;5.33;4.33;;;;;15.36;52.32;101326.69;5015428;28;45469;-68
2022/09/19 01:00:55;;;;;;;;;6.00;4.67;;;;;15.37;52.73;101331.06;5015547;28;45503;-68
2022/09/19 01:03:24;;;;;;;;;4.00;4.00;;;;;15.41;52.37;101333.50;5014691;28;45558;-67
2022/09/19 01:06:19;;;;;;;;;5.67;4.33;;;;;15.43;52.34;101330.81;5015931;28;45670;-67
2022/09/19 01:09:14;;;;;;;;;3.00;3.00;;;;;15.49;51.84;101335.81;5014038;28;45589;-68
2022/09/19 01:12:13;;;;;;;;;4.00;4.00;;;;;15.49;52.27;101329.66;5004812;28;45466;-67
2022/09/19 01:15:01;;;;;;;;;3.00;3.00;;;;;15.34;51.84;101317.94;4993723;28;45460;-67
2022/09/19 01:17:42;;;;;;;;;4.67;3.67;;;;;15.46;52.52;101333.31;4995464;28;45563;-68
2022/09/19 01:20:19;;;;;;;;;5.33;3.67;;;;;15.51;51.36;101333.97;4998666;28;45607;-68
2022/09/19 01:23:42;;;;;;;;;3.67;3.67;;;;;15.50;52.29;101326.06;4998948;28;45515;-68
2022/09/19 01:26:38;;;;;;;;;4.00;4.00;;;;;15.46;52.99;101330.66;4954046;28;45553;-69
2022/09/19 01:29:20;;;;;;;;;2.00;2.00;;;;;15.49;52.31;101329.66;5012617;28;46109;-68
2022/09/19 01:31:50;;;;;;;;;3.33;3.33;;;;;15.45;52.27;101321.00;5014690;28;45651;-68
2022/09/19 01:34:24;;;;;;;;;5.67;4.33;;;;;15.53;52.29;101321.50;5013546;28;45474;-68
2022/09/19 01:37:09;;;;;;;;;3.67;3.67;;;;;15.57;53.00;101335.50;5014763;28;45474;-68
2022/09/19 01:39:38;;;;;;;;;4.00;4.00;;;;;15.59;52.39;101333.63;5014677;28;46026;-68
2022/09/19 01:42:03;;;;;;;;;4.00;3.00;;;;;15.55;52.18;101340.00;4999614;28;45496;-68
2022/09/19 01:44:30;;;;;;;;;3.00;3.00;;;;;15.57;52.05;101338.13;5009454;28;45427;-68
2022/09/19 01:47:33;;;;;;;;;3.67;3.67;;;;;15.54;52.40;101336.47;5014894;28;45431;-68
2022/09/19 01:50:06;;;;;;;;;3.00;2.33;;;;;15.50;52.59;101328.72;5014696;28;47131;-68
2022/09/19 01:52:37;;;;;;;;;4.67;3.00;;;;;15.52;52.93;101329.53;5014814;28;45483;-68
2022/09/19 01:55:32;;;;;;;;;3.00;3.00;;;;;15.49;52.11;101335.81;5013989;28;45584;-68
2022/09/19 01:58:16;;;;;;;;;3.00;3.00;;;;;15.43;52.96;101336.97;5014099;28;45508;-68
2022/09/19 02:01:04;;;;;;;;;3.00;3.00;;;;;15.45;52.84;101344.84;5014335;28;45428;-68
2022/09/19 02:03:42;;;;;;;;;3.00;3.00;;;;;15.43;53.73;101341.41;5009910;28;45438;-68
2022/09/19 02:06:23;;;;;;;;;3.00;3.00;;;;;15.42;52.67;101329.94;5014621;28;45454;-68
2022/09/19 02:08:55;;;;;;;;;3.00;3.00;;;;;15.48;53.48;101342.06;5013133;28;45569;-68
2022/09/19 02:11:22;;;;;;;;;2.67;2.67;;;;;15.41;52.49;101333.50;5014267;28;46195;-67
2022/09/19 02:13:57;;;;;;;;;3.00;3.00;;;;;15.51;53.06;101343.72;5013045;28;45375;-67
2022/09/19 02:16:30;;;;;;;;;2.00;2.00;;;;;15.50;51.97;101340.22;5014460;28;45525;-68
2022/09/19 02:19:15;;;;;;;;;3.00;3.00;;;;;15.51;53.42;101357.84;5009486;28;45455;-68
2022/09/19 02:21:45;;;;;;;;;4.00;4.00;;;;;15.54;53.30;101355.03;4995891;28;45527;-66
2022/09/19 02:24:14;;;;;;;;;3.67;3.67;;;;;15.50;52.46;101358.78;4993239;28;45580;-67
2022/09/19 02:26:42;;;;;;;;;2.67;2.67;;;;;15.43;52.33;101354.66;4994890;28;45440;-66
2022/09/19 02:29:12;;;;;;;;;3.67;3.67;;;;;15.45;53.44;101351.00;4995661;28;45566;-67
2022/09/19 02:31:38;;;;;;;;;4.00;4.00;;;;;15.49;52.65;101356.19;4994815;28;45480;-67
2022/09/19 02:34:06;;;;;;;;;3.67;3.00;;;;;15.52;52.77;101356.88;4994589;28;45475;-67
2022/09/19 02:36:40;;;;;;;;;3.33;3.33;;;;;15.45;53.80;101356.31;5004774;28;45547;-68
2022/09/19 02:39:32;;;;;;;;;2.67;2.67;;;;;15.47;53.23;101358.88;5013766;28;45478;-67
2022/09/19 02:42:30;;;;;;;;;2.00;2.00;;;;;15.50;53.04;101349.94;5010807;28;48179;-67
2022/09/19 02:44:58;;;;;;;;;1.67;1.00;;;;;15.51;53.11;101349.03;5015218;28;45590;-67
2022/09/19 02:47:30;;;;;;;;;4.33;3.00;;;;;15.49;53.41;101362.34;5013944;28;45599;-67
2022/09/19 02:50:02;;;;;;;;;5.33;5.33;;;;;15.39;53.39;101351.28;5015248;28;45416;-67
2022/09/19 02:52:30;;;;;;;;;4.33;4.00;;;;;15.40;53.52;101344.19;4997571;28;46825;-67
2022/09/19 02:55:08;;;;;;;;;2.00;2.00;;;;;15.50;53.61;101360.53;5016578;28;45504;-67
2022/09/19 02:57:34;;;;;;;;;6.33;5.33;;;;;15.44;53.19;101362.53;5015381;28;45438;-66
2022/09/19 03:00:03;;;;;;;;;5.33;4.33;;;;;15.36;52.94;101348.75;5016359;28;45462;-67
2022/09/19 03:02:34;;;;;;;;;3.00;3.00;;;;;15.46;53.14;101358.03;5016841;28;45430;-67
2022/09/19 03:05:06;;;;;;;;;3.00;3.00;;;;;15.50;52.74;101352.59;5017699;28;45426;-67
2022/09/19 03:07:58;;;;;;;;;3.67;3.67;;;;;15.52;52.61;101359.53;5013634;28;45572;-68
2022/09/19 03:10:34;;;;;;;;;4.00;4.00;;;;;15.54;52.77;101364.78;5003969;28;45522;-66
2022/09/19 03:13:09;;;;;;;;;3.67;3.67;;;;;15.44;53.03;101357.22;5016520;28;45415;-67
2022/09/19 03:15:36;;;;;;;;;4.00;4.00;;;;;15.38;53.55;101351.34;5016971;28;45503;-66
2022/09/19 03:18:25;;;;;;;;;3.33;3.00;;;;;15.31;53.92;101337.47;5017019;28;45574;-68
2022/09/19 03:20:59;;;;;;;;;4.00;4.00;;;;;15.42;53.55;101356.44;4998426;28;45458;-69
2022/09/19 03:23:32;;;;;;;;;3.00;3.00;;;;;15.44;53.58;101359.00;4997138;28;45423;-68
2022/09/19 03:25:58;;;;;;;;;5.00;4.67;;;;;15.46;53.73;101362.47;4997074;28;45637;-68
2022/09/19 03:28:23;;;;;;;;;3.00;3.00;;;;;15.48;53.43;101359.75;4997305;28;45570;-68
2022/09/19 03:30:49;;;;;;;;;5.00;5.00;;;;;15.44;53.08;101357.22;4996970;28;45583;-68
2022/09/19 03:33:16;;;;;;;;;4.00;4.00;;;;;15.45;53.28;101355.47;4996979;28;46455;-69
2022/09/19 03:35:43;;;;;;;;;5.33;3.67;;;;;15.42;53.54;101355.56;5016846;28;45415;-68
2022/09/19 03:38:09;;;;;;;;;3.00;3.00;;;;;15.34;53.15;101352.38;5015581;28;45543;-68
2022/09/19 03:40:34;;;;;;;;;7.67;7.00;;;;;15.39;53.88;101363.66;5016156;28;45641;-66
2022/09/19 03:43:01;;;;;;;;;3.67;3.67;;;;;15.28;53.92;101339.41;5016572;28;45510;-66
2022/09/19 03:45:26;;;;;;;;;4.00;4.00;;;;;15.34;53.56;101355.03;4998996;28;45472;-67
2022/09/19 03:47:52;;;;;;;;;4.67;4.67;;;;;15.27;54.46;101351.81;5016285;28;45593;-67
2022/09/19 03:50:18;;;;;;;;;4.33;4.33;;;;;15.29;53.80;101365.84;5016430;28;45514;-67
2022/09/19 03:52:47;;;;;;;;;4.00;4.00;;;;;15.28;53.72;101366.75;5016409;28;46288;-67
2022/09/19 03:55:13;;;;;;;;;5.00;5.00;;;;;15.26;54.31;101371.28;5012572;28;45436;-67
2022/09/19 03:57:38;;;;;;;;;6.00;4.67;;;;;15.16;54.05;101362.84;4996716;28;45479;-67
2022/09/19 04:00:04;;;;;;;;;7.00;5.00;;;;;15.12;54.44;101361.25;5001998;28;45700;-67
2022/09/19 04:02:30;;;;;;;;;4.00;4.00;;;;;15.26;54.41;101371.28;5016310;28;45785;-67
2022/09/19 04:04:56;;;;;;;;;6.00;6.00;;;;;15.22;54.17;101362.59;5015674;28;45442;-67
2022/09/19 04:07:21;;;;;;;;;6.67;6.00;;;;;15.20;54.50;101366.22;5016260;28;45474;-67
2022/09/19 04:09:46;;;;;;;;;4.00;4.00;;;;;15.18;54.21;101376.06;5016386;28;45549;-67
2022/09/19 04:12:12;;;;;;;;;4.67;4.67;;;;;15.20;54.43;101379.47;5014852;28;46232;-68
2022/09/19 04:14:38;;;;;;;;;4.33;4.33;;;;;15.15;53.98;101377.03;5014646;28;45547;-68
2022/09/19 04:17:06;;;;;;;;;5.67;5.67;;;;;15.05;54.74;101364.25;5004218;28;45491;-67
2022/09/19 04:19:32;;;;;;;;;5.00;4.00;;;;;15.14;55.14;101377.09;5015773;28;45455;-66
2022/09/19 04:22:01;;;;;;;;;4.00;3.33;;;;;15.05;54.37;101372.19;5015303;28;45470;-67
2022/09/19 04:24:29;;;;;;;;;4.00;4.00;;;;;14.96;54.62;101362.81;5014579;28;46025;-67
2022/09/19 04:26:54;;;;;;;;;3.67;3.67;;;;;14.91;54.68;101378.03;5002418;28;45383;-67
2022/09/19 04:29:20;;;;;;;;;3.67;3.67;;;;;14.94;55.11;101380.59;4996013;28;45567;-67
2022/09/19 04:31:45;;;;;;;;;4.67;4.67;;;;;14.94;55.19;101381.44;4997103;28;45524;-67
2022/09/19 04:34:14;;;;;;;;;7.00;5.00;;;;;14.92;55.50;101382.44;5010216;28;45519;-67
2022/09/19 04:36:40;;;;;;;;;6.67;4.00;;;;;14.77;55.60;101370.66;5015703;28;45545;-67
2022/09/19 04:39:06;;;;;;;;;6.00;6.00;;;;;14.87;55.34;101387.03;5015811;28;45567;-67
2022/09/19 04:41:36;;;;;;;;;6.33;6.00;;;;;14.83;55.64;101382.78;5015460;28;45462;-67
2022/09/19 04:44:04;;;;;;;;;4.00;4.00;;;;;14.86;55.35;101390.63;5015766;28;45483;-68
2022/09/19 04:46:31;;;;;;;;;5.67;5.67;;;;;14.80;55.64;101389.06;5014393;28;45516;-67
2022/09/19 04:48:56;;;;;;;;;6.33;6.33;;;;;14.70;56.18;101385.94;5015352;28;45472;-67
2022/09/19 04:51:23;;;;;;;;;6.33;6.00;;;;;14.82;55.92;101391.66;5014482;28;46094;-68
2022/09/19 04:53:48;;;;;;;;;5.00;5.00;;;;;14.79;55.99;101388.22;5015175;28;45452;-66
2022/09/19 04:56:14;;;;;;;;;5.33;5.33;;;;;14.79;56.08;101393.50;5014443;28;45504;-67
2022/09/19 04:58:40;;;;;;;;;5.67;5.67;;;;;14.77;56.60;101395.34;5014669;28;45593;-66
2022/09/19 05:01:07;;;;;;;;;10.33;8.67;;;;;14.79;55.52;101395.28;5011391;28;45646;-68
2022/09/19 05:03:33;;;;;;;;;9.67;9.67;;;;;14.70;55.36;101378.00;5006792;28;45420;-68
2022/09/19 05:05:59;;;;;;;;;9.33;9.33;;;;;14.69;56.41;101384.19;5015729;28;45547;-68
2022/09/19 05:08:27;;;;;;;;;10.00;10.00;;;;;14.57;56.80;101372.31;5014708;28;45657;-65
2022/09/19 05:10:57;;;;;;;;;9.33;8.00;;;;;14.68;56.56;101390.44;5014949;28;46162;-68
2022/09/19 05:13:28;;;;;;;;;12.33;9.33;;;;;14.68;57.11;101397.50;5014969;28;45426;-68
2022/09/19 05:15:54;;;;;;;;;7.33;7.00;;;;;14.66;56.18;101397.56;5014840;28;45470;-69
2022/09/19 05:18:21;;;;;;;;;11.00;9.00;;;;;14.64;56.53;101399.44;5000109;28;45512;-68
2022/09/19 05:20:47;;;;;;;;;8.67;7.00;;;;;14.51;56.65;101391.06;5007353;28;46219;-68
2022/09/19 05:23:14;;;;;;;;;6.67;6.67;;;;;14.53;56.47;101394.56;5008331;28;45531;-68
2022/09/19 05:25:40;;;;;;;;;7.33;7.33;;;;;14.55;56.60;101399.78;4995648;28;45461;-68
2022/09/19 05:28:06;;;;;;;;;6.67;6.67;;;;;14.48;56.38;101404.44;4995456;28;45719;-68
2022/09/19 05:30:34;;;;;;;;;8.33;8.33;;;;;14.48;57.35;101415.00;5001045;28;46510;-68
2022/09/19 05:32:59;;;;;;;;;7.00;7.00;;;;;14.51;57.33;101414.03;5015030;28;45478;-69
2022/09/19 05:35:26;;;;;;;;;6.33;6.00;;;;;14.51;56.61;101412.25;5007962;28;45392;-68
2022/09/19 05:37:52;;;;;;;;;8.33;7.00;;;;;14.39;56.95;101402.13;4993766;28;45504;-68
2022/09/19 05:40:18;;;;;;;;;6.67;5.67;;;;;14.43;56.72;101410.81;4993808;28;45603;-68
2022/09/19 05:42:46;;;;;;;;;8.00;8.00;;;;;14.44;56.85;101412.53;4995253;28;45505;-69
2022/09/19 05:45:12;;;;;;;;;8.67;6.33;;;;;14.47;57.09;101409.75;5008909;28;45510;-67
2022/09/19 05:47:41;;;;;;;;;5.67;5.67;;;;;14.44;57.66;101415.19;4995296;28;45606;-67
2022/09/19 05:50:08;;;;;;;;;6.00;5.00;;;;;14.42;57.33;101409.94;4994894;28;45514;-67
2022/09/19 05:55:23;;;;;;;;;5.67;5.67;;;;;14.46;57.70;101418.66;4995118;28;45475;-66
2022/09/19 05:57:50;;;;;;;;;7.00;6.00;;;;;14.48;57.07;101424.72;5006114;28;45485;-67
2022/09/19 06:00:15;;;;;;;;;6.00;6.00;;;;;14.49;57.38;101422.03;5014414;28;45536;-67
2022/09/19 06:02:41;;;;;;;;;6.67;5.67;;;;;14.52;56.83;101421.94;5013208;28;45450;-67
2022/09/19 06:05:06;;;;;;;;;10.33;8.00;;;;;14.54;56.81;101427.19;5013003;28;45640;-62
2022/09/19 06:07:32;;;;;;;;;7.67;7.67;;;;;14.51;57.39;101424.63;4994660;28;45523;-63
2022/09/19 06:09:57;;;;;;;;;8.33;7.00;;;;;14.52;57.27;101426.34;5008952;28;46055;-67
2022/09/19 06:12:22;;;;;;;;;6.67;6.00;;;;;14.56;57.22;101430.59;5008374;28;45433;-67
2022/09/19 06:14:48;;;;;;;;;7.67;7.67;;;;;14.60;57.41;101431.38;4994616;28;45453;-68
2022/09/19 06:17:15;;;;;;;;;9.00;7.67;;;;;14.62;57.08;101438.34;5002670;28;45494;-67
2022/09/19 06:19:41;;;;;;;;;7.67;7.00;;;;;14.66;56.36;101439.06;5014984;28;45467;-67
2022/09/19 06:22:06;;;;;;;;;6.67;6.67;;;;;14.71;56.58;101440.59;5017792;28;45637;-67
2022/09/19 06:24:31;;;;;;;;;8.33;8.33;;;;;14.76;56.45;101440.44;5010753;28;45491;-67
2022/09/19 06:26:57;;;;;;;;;6.00;6.00;;;;;14.77;56.46;101448.31;5015255;28;45437;-66
2022/09/19 06:29:22;;;;;;;;;6.67;6.67;;;;;14.66;57.35;101447.88;5007091;28;45538;-69
2022/09/19 06:31:48;;;;;;;;;8.33;8.33;;;;;14.66;56.86;101460.25;5010784;28;45585;-70
2022/09/19 06:34:15;;;;;;;;;7.33;6.00;;;;;14.59;57.42;101464.94;5003151;28;45470;-68
2022/09/19 06:36:43;;;;;;;;;7.67;7.67;;;;;14.51;57.61;101466.97;5017977;28;45521;-69
2022/09/19 06:39:08;;;;;;;;;7.67;7.00;;;;;14.50;57.23;101460.78;5017174;28;47001;-68
2022/09/19 06:41:34;;;;;;;;;12.67;10.33;;;;;14.54;57.89;101469.53;5017064;28;45481;-66
2022/09/19 06:44:01;;;;;;;;;6.33;6.00;;;;;14.52;58.21;101469.59;5015586;28;45474;-66
2022/09/19 06:46:26;;;;;;;;;6.00;6.00;;;;;14.42;58.42;101470.81;5016515;28;45606;-68
2022/09/19 06:48:52;;;;;;;;;7.67;7.33;;;;;14.43;57.63;101479.63;5014701;28;46191;-67
2022/09/19 06:51:17;;;;;;;;;10.33;10.33;;;;;14.44;58.15;101476.91;5015325;28;45546;-68
2022/09/19 06:53:42;;;;;;;;;7.67;7.67;;;;;14.44;57.69;101468.97;5016777;28;45494;-67
2022/09/19 06:56:08;;;;;;;;;7.00;7.00;;;;;14.52;57.67;101484.56;5016716;28;45438;-66
2022/09/19 06:58:34;;;;;;;;;7.67;7.67;;;;;14.57;57.97;101480.00;5016433;28;45895;-68
2022/09/19 07:01:01;;;;;;;;;9.33;9.33;;;;;14.63;57.66;101486.84;5016843;28;45495;-67
2022/09/19 07:03:26;;;;;;;;;10.00;9.00;;;;;14.58;57.25;101479.94;5015753;28;45549;-68
2022/09/19 07:05:52;;;;;;;;;8.00;7.67;;;;;14.71;57.29;101490.91;5017430;28;45716;-67
2022/09/19 07:08:17;;;;;;;;;8.33;8.33;;;;;14.69;57.07;101495.41;5016639;28;45992;-66
2022/09/19 07:10:42;;;;;;;;;8.00;8.00;;;;;14.68;57.32;101495.47;5016544;28;45463;-68
2022/09/19 07:13:13;;;;;;;;;7.00;7.00;;;;;14.74;56.78;101501.38;5015293;28;45548;-68
2022/09/19 07:15:39;;;;;;;;;8.33;8.33;;;;;14.74;57.31;101500.53;5016889;28;45550;-67
2022/09/19 07:18:08;;;;;;;;;9.33;8.67;;;;;14.76;56.92;101506.63;5016374;28;46310;-67
2022/09/19 07:20:34;;;;;;;;;8.33;8.00;;;;;14.77;57.09;101505.72;5016665;28;45485;-66
2022/09/19 07:23:18;;;;;;;;;11.33;9.33;;;;;14.76;57.71;101507.50;5016399;28;45440;-66
2022/09/19 07:25:44;;;;;;;;;9.33;8.00;;;;;14.78;57.64;101508.31;5016490;28;45396;-67
2022/09/19 07:28:15;;;;;;;;;10.00;10.00;;;;;14.80;56.70;101514.41;5016416;28;45996;-68
2022/09/19 07:30:43;;;;;;;;;8.67;7.67;;;;;14.86;57.72;101517.75;5016085;28;45490;-68
2022/09/19 07:33:10;;;;;;;;;11.00;10.33;;;;;14.90;56.77;101516.69;5016396;28;45454;-67
2022/09/19 07:35:37;;;;;;;;;10.67;9.67;;;;;14.94;56.57;101513.88;5016592;28;45482;-65
2022/09/19 07:38:04;;;;;;;;;9.00;9.00;;;;;14.99;57.16;101521.63;5016035;28;45447;-66
2022/09/19 07:40:30;;;;;;;;;7.67;7.67;;;;;15.00;56.68;101512.78;5016399;28;45391;-66
2022/09/19 07:43:02;;;;;;;;;8.00;7.33;;;;;15.06;56.30;101527.56;5016464;28;45472;-66
2022/09/19 07:45:32;;;;;;;;;10.00;8.33;;;;;15.11;56.30;101523.81;5016281;28;45552;-67
2022/09/19 07:47:58;;;;;;;;;9.00;8.33;;;;;15.12;55.69;101522.03;5016162;28;46130;-67
2022/09/19 07:50:23;;;;;;;;;7.67;7.67;;;;;15.08;57.17;101523.06;5016056;28;45472;-67
2022/09/19 07:53:09;;;;;;;;;11.00;8.67;;;;;15.16;56.58;101532.44;5016350;28;45444;-67
2022/09/19 07:55:35;;;;;;;;;8.00;8.00;;;;;15.22;56.68;101533.97;5016236;28;45423;-68
2022/09/19 07:58:03;;;;;;;;;9.00;9.00;;;;;15.11;56.28;101515.00;5015756;28;45486;-67
2022/09/19 08:00:30;;;;;;;;;8.67;8.67;;;;;15.25;57.11;101533.84;5015818;28;45403;-68
2022/09/19 08:03:00;;;;;;;;;8.67;8.67;;;;;15.30;56.43;101536.34;5015919;28;45447;-67
2022/09/19 08:05:27;;;;;;;;;8.00;6.33;;;;;15.27;56.92;101526.72;5016485;28;45461;-68
2022/09/19 08:07:54;;;;;;;;;10.67;9.33;;;;;15.40;56.17;101543.00;5014534;28;47213;-68
2022/09/19 08:10:20;;;;;;;;;10.33;9.33;;;;;15.43;56.17;101540.22;5015824;28;45590;-67
2022/09/19 08:12:47;;;;;;;;;11.33;11.33;;;;;15.47;56.23;101544.44;5015699;28;45500;-69
2022/09/19 08:15:15;;;;;;;;;9.00;8.00;;;;;15.51;55.20;101548.72;5015653;28;45430;-67
2022/09/19 08:17:58;;;;;;;;;6.00;5.33;;;;;15.52;55.66;101555.75;5015572;28;46330;-68
2022/09/19 08:20:25;;;;;;;;;4.33;3.33;;;;;15.55;55.30;101552.97;5015528;28;45487;-69
2022/09/19 08:22:56;;;;;;;;;8.00;4.67;;;;;15.61;55.18;101559.81;5015728;28;45498;-68
2022/09/19 08:25:22;;;;;;;;;5.67;4.00;;;;;15.64;54.79;101552.59;5015528;28;45458;-67
2022/09/19 08:27:48;;;;;;;;;5.00;5.00;;;;;15.70;54.61;101556.81;5015360;28;47189;-68
2022/09/19 08:30:13;;;;;;;;;4.33;4.33;;;;;15.71;54.62;101557.66;5015512;28;45480;-67
2022/09/19 08:32:38;;;;;;;;;4.33;4.33;;;;;15.75;54.34;101556.63;5015628;28;45361;-68
2022/09/19 08:35:04;;;;;;;;;0.00;0.00;;;;;15.71;54.04;101552.38;5013807;28;50987;-69
2022/09/19 08:37:30;;;;;;;;;3.00;3.00;;;;;15.73;53.25;101555.84;5015093;28;45593;-67
2022/09/19 08:40:28;;;;;;;;;1.67;1.67;;;;;15.81;52.83;101559.88;5015412;28;45501;-68
2022/09/19 08:43:10;;;;;;;;;1.67;1.67;;;;;15.80;53.00;101567.91;5012755;28;45486;-67
2022/09/19 08:45:59;;;;;;;;;3.33;3.33;;;;;15.84;52.02;101561.53;5015354;28;45537;-67
2022/09/19 08:48:31;;;;;;;;;4.00;2.67;;;;;15.85;52.53;101563.25;5015217;28;45446;-68
2022/09/19 08:51:06;;;;;;;;;3.00;3.00;;;;;15.83;52.32;101563.34;5015227;28;45540;-67
2022/09/19 08:53:40;;;;;;;;;3.00;3.00;;;;;15.81;52.29;101561.69;5014164;28;45502;-67
2022/09/19 08:56:05;;;;;;;;;4.00;4.00;;;;;15.82;51.92;101560.75;5015208;28;45594;-67
2022/09/19 08:58:38;;;;;;;;;3.00;3.00;;;;;15.82;51.87;101569.56;5014865;28;45478;-67
2022/09/19 09:01:07;;;;;;;;;2.67;2.67;;;;;15.84;52.25;101572.16;5015264;28;45507;-68
2022/09/19 09:03:45;;;;;;;;;1.67;1.67;;;;;15.83;51.78;101573.09;5015271;28;45490;-67
2022/09/19 09:06:22;;;;;;;;;4.00;3.33;;;;;15.85;52.41;101574.75;5015660;28;45383;-68
2022/09/19 09:09:08;;;;;;;;;2.00;2.00;;;;;15.90;50.94;101579.84;5014801;28;45990;-68
2022/09/19 09:11:51;;;;;;;;;2.67;2.67;;;;;15.94;50.58;101576.16;5014885;28;45495;-67
2022/09/19 09:14:58;;;;;;;;;5.00;3.00;;;;;15.98;50.73;101575.09;5013725;28;45502;-69
2022/09/19 09:17:24;;;;;;;;;3.67;3.00;;;;;16.02;51.32;101583.78;5014100;28;45606;-67
2022/09/19 09:19:49;;;;;;;;;4.00;3.00;;;;;16.05;50.55;101579.22;5014314;28;45426;-68
2022/09/19 09:22:29;;;;;;;;;2.67;2.67;;;;;16.07;51.15;101576.50;5014672;28;45541;-66
2022/09/19 09:25:19;;;;;;;;;4.00;4.00;;;;;16.11;51.35;101584.25;5014869;28;45490;-67
2022/09/19 09:27:57;;;;;;;;;2.33;2.00;;;;;16.12;50.67;101575.38;5014637;28;45676;-68
2022/09/19 09:30:23;;;;;;;;;4.00;3.00;;;;;16.13;51.10;101573.56;5014369;28;46130;-69
2022/09/19 09:32:56;;;;;;;;;5.00;4.00;;;;;16.19;51.50;101583.91;5014479;28;45467;-67
2022/09/19 09:35:34;;;;;;;;;3.00;2.67;;;;;16.24;50.23;101579.28;5014818;28;45567;-67
2022/09/19 09:38:38;;;;;;;;;2.67;2.33;;;;;16.32;50.24;101581.59;5014294;28;45578;-67
2022/09/19 09:44:15;;;;;;;;;3.33;3.33;;;;;16.38;50.08;101585.78;5014569;28;45423;-68
2022/09/19 09:46:53;;;;;;;;;4.67;2.67;;;;;16.47;50.01;101588.03;5014656;28;45474;-68
2022/09/19 09:49:22;;;;;;;;;2.67;2.67;;;;;16.50;49.19;101578.16;5014395;28;45483;-67
2022/09/19 09:52:24;;;;;;;;;1.00;1.00;;;;;16.54;48.41;101581.53;5014212;28;45459;-67
2022/09/19 09:57:51;;;;;;;;;0.00;0.00;;;;;16.50;47.36;101572.84;5018059;28;45439;-67
2022/09/19 10:03:35;;;;;;;;;1.00;1.00;;;;;16.37;47.06;101574.31;5017963;28;45752;-67
2022/09/19 10:06:24;;;;;;;;;1.00;1.00;;;;;16.39;47.50;101579.53;5018267;28;45557;-68
2022/09/19 10:09:17;;;;;;;;;1.00;1.00;;;;;16.41;46.92;101575.03;5017673;28;45439;-67
2022/09/19 10:11:57;;;;;;;;;2.67;1.00;;;;;16.45;47.38;101566.00;5017653;28;45477;-68
2022/09/19 10:14:28;;;;;;;;;1.00;1.00;;;;;16.47;46.98;101553.50;5017468;28;45433;-68
2022/09/19 10:16:59;;;;;;;;;1.33;1.33;;;;;16.59;46.57;101565.38;5017476;28;45407;-68
2022/09/19 10:19:35;;;;;;;;;2.00;1.00;;;;;16.67;46.13;101560.59;5017650;28;45642;-68
2022/09/19 10:22:00;;;;;;;;;1.67;1.67;;;;;16.73;45.90;101566.47;5017575;28;45704;-67
2022/09/19 10:24:50;;;;;;;;;2.00;2.00;;;;;16.79;46.26;101568.00;5017428;28;46044;-69
2022/09/19 10:27:38;;;;;;;;;0.67;0.67;;;;;16.79;45.44;101570.66;5016099;28;45492;-68
2022/09/19 10:30:24;;;;;;;;;1.33;1.00;;;;;16.79;45.86;101560.03;5017716;28;45561;-68
2022/09/19 10:32:51;;;;;;;;;0.33;0.33;;;;;16.82;44.53;101554.63;5017610;28;45459;-68
2022/09/19 10:35:30;;;;;;;;;3.00;2.00;;;;;16.85;46.33;101558.94;5015946;28;48145;-68
2022/09/19 10:38:15;;;;;;;;;2.33;1.00;;;;;16.78;45.22;101547.69;5016820;28;45458;-68
2022/09/19 10:40:56;;;;;;;;;2.33;2.33;;;;;16.71;45.59;101528.50;5017446;28;45509;-68
2022/09/19 10:43:30;;;;;;;;;0.00;0.00;;;;;16.90;45.24;101560.44;5017323;28;45534;-68
2022/09/19 10:45:58;;;;;;;;;2.00;2.00;;;;;16.92;44.72;101555.88;5016932;28;45478;-68
2022/09/19 10:48:31;;;;;;;;;1.33;1.00;;;;;16.96;44.92;101554.81;5016844;28;45427;-69
2022/09/19 10:51:02;;;;;;;;;1.00;1.00;;;;;16.99;43.53;101556.47;5017132;28;45470;-68
2022/09/19 10:53:30;;;;;;;;;0.00;0.00;;;;;16.98;43.04;101552.09;5017153;28;45518;-68
2022/09/19 10:56:25;;;;;;;;;1.00;1.00;;;;;16.99;43.92;101554.69;5016744;28;45442;-69
2022/09/19 10:58:59;;;;;;;;;3.00;2.00;;;;;17.07;44.09;101553.47;5015390;28;45469;-69
2022/09/19 11:01:26;;;;;;;;;2.00;2.00;;;;;17.14;43.87;101553.09;5017273;28;45451;-67
2022/09/19 11:04:05;;;;;;;;;1.00;1.00;;;;;17.18;43.83;101552.00;5016963;28;45491;-67
2022/09/19 11:06:32;;;;;;;;;1.00;1.00;;;;;17.20;44.14;101539.50;5014982;28;46934;-68
2022/09/19 11:08:59;;;;;;;;;24.00;22.00;;;;;17.30;43.31;101547.03;5016425;28;45453;-68
2022/09/19 11:11:37;;;;;;;;;1.00;1.00;;;;;17.30;42.85;101549.69;5016750;28;45481;-68
2022/09/19 11:14:28;;;;;;;;;2.00;2.00;;;;;17.30;43.09;101553.25;5016922;28;45429;-69
2022/09/19 11:17:29;;;;;;;;;2.00;2.00;;;;;17.23;42.87;101542.03;5016581;28;46550;-68
2022/09/19 11:20:19;;;;;;;;;1.00;1.00;;;;;17.26;41.46;101546.31;5016517;28;45428;-66
2022/09/19 11:23:21;;;;;;;;;2.33;2.33;;;;;17.32;42.39;101547.81;5016514;28;45566;-67
2022/09/19 11:26:04;;;;;;;;;1.67;1.67;;;;;17.36;41.79;101549.41;5016473;28;45395;-67
2022/09/19 11:28:47;;;;;;;;;1.00;1.00;;;;;17.41;41.33;101553.56;5016229;28;45590;-67
2022/09/19 11:32:03;;;;;;;;;1.33;1.00;;;;;17.47;43.04;101557.72;5010015;28;45572;-67
2022/09/19 11:34:47;;;;;;;;;0.00;0.00;;;;;17.52;41.86;101554.84;5016369;28;45573;-68
2022/09/19 11:37:54;;;;;;;;;1.00;1.00;;;;;17.43;42.37;101537.53;5008226;28;45451;-67
2022/09/19 11:40:40;;;;;;;;;5.00;1.33;;;;;17.55;42.44;101554.69;4996261;28;45470;-69
2022/09/19 11:43:07;;;;;;;;;1.00;1.00;;;;;17.56;41.46;101557.25;4996406;28;45428;-67
2022/09/19 11:45:53;;;;;;;;;2.00;2.00;;;;;17.54;41.12;101552.97;5001500;28;45518;-67
2022/09/19 11:48:34;;;;;;;;;3.33;2.00;;;;;17.51;40.61;101553.09;5006381;28;45403;-70
2022/09/19 11:51:15;;;;;;;;;2.33;1.67;;;;;17.48;40.47;101543.47;5006057;28;45568;-67
2022/09/19 11:54:09;;;;;;;;;0.00;0.00;;;;;17.55;40.23;101541.41;5015747;28;45490;-66
2022/09/19 11:57:17;;;;;;;;;1.00;1.00;;;;;17.65;39.73;101537.31;5015843;28;45488;-68
2022/09/19 12:00:07;;;;;;;;;1.00;1.00;;;;;17.70;40.52;101543.28;5001953;28;45552;-66
2022/09/19 12:02:47;;;;;;;;;1.00;1.00;;;;;17.70;39.64;101535.28;5016039;28;46896;-68
2022/09/19 12:05:27;;;;;;;;;1.00;1.00;;;;;17.81;39.61;101535.66;5016564;28;45552;-68